Time;durP1;ratioP1;P1;durP2;ratioP2;P2;SDS_P1;SDS_P2;PMS_P1;PMS_P2;Temp;Humidity;BMP_temperature;BMP_pressure;BME280_temperature;BME280_humidity;BME280_pressure;Samples;Min_cycle;Max_cycle;Signal;HPM_P1;HPM_P2
2023/07/24 00:00:04;;;;;;;2.60;2.50;;;23.30;65.30;;;;;;5114645;27;43919;-70
2023/07/24 00:02:32;;;;;;;2.50;2.40;;;23.30;65.10;;;;;;5109849;27;43421;-70
2023/07/24 00:05:00;;;;;;;2.10;2.10;;;23.30;65.10;;;;;;5100847;27;43465;-71
2023/07/24 00:07:28;;;;;;;2.40;2.40;;;23.30;65.30;;;;;;5093956;27;43432;-69
2023/07/24 00:09:56;;;;;;;2.37;2.30;;;23.20;65.60;;;;;;5110799;27;43591;-72
2023/07/24 00:12:24;;;;;;;2.20;2.20;;;23.20;65.80;;;;;;5109806;27;43432;-70
2023/07/24 00:14:54;;;;;;;2.30;2.30;;;23.20;65.80;;;;;;5093956;27;43396;-70
2023/07/24 00:17:22;;;;;;;2.20;2.20;;;23.10;65.80;;;;;;5106165;27;43416;-70
2023/07/24 00:19:51;;;;;;;2.37;2.37;;;23.10;66.10;;;;;;5109090;27;43719;-69
2023/07/24 00:22:19;;;;;;;2.30;2.20;;;23.10;66.40;;;;;;5112938;27;43406;-70
2023/07/24 00:24:47;;;;;;;2.60;2.60;;;23.10;66.10;;;;;;5110425;27;43946;-69
2023/07/24 00:27:15;;;;;;;2.20;2.20;;;23.20;65.80;;;;;;5110892;27;44016;-69
2023/07/24 00:29:43;;;;;;;2.30;2.30;;;23.20;65.80;;;;;;5105118;27;43623;-70
2023/07/24 00:32:13;;;;;;;2.40;2.40;;;23.20;65.80;;;;;;5095110;27;44774;-70
2023/07/24 00:34:41;;;;;;;2.27;2.23;;;23.10;65.90;;;;;;5090273;27;43489;-70
2023/07/24 00:37:09;;;;;;;2.20;2.20;;;23.10;66.00;;;;;;5096758;27;43878;-70
2023/07/24 00:39:37;;;;;;;2.30;2.30;;;23.10;65.90;;;;;;5110826;27;43614;-70
2023/07/24 00:42:05;;;;;;;2.40;2.40;;;23.10;66.00;;;;;;5108674;27;43349;-70
2023/07/24 00:44:33;;;;;;;2.57;2.57;;;23.10;66.20;;;;;;5109853;27;43427;-70
2023/07/24 00:47:01;;;;;;;2.33;2.33;;;23.10;66.50;;;;;;5088115;27;43469;-69
2023/07/24 00:49:30;;;;;;;2.60;2.50;;;23.10;66.40;;;;;;5107492;27;44177;-69
2023/07/24 00:51:58;;;;;;;2.30;2.20;;;23.10;66.30;;;;;;5110211;27;43424;-69
2023/07/24 00:54:26;;;;;;;2.37;2.27;;;23.00;66.30;;;;;;5110527;27;43522;-69
2023/07/24 00:56:54;;;;;;;2.43;2.33;;;23.00;66.50;;;;;;5091322;27;43490;-69
2023/07/24 00:59:22;;;;;;;2.30;2.30;;;23.00;66.50;;;;;;5108300;27;43582;-70
2023/07/24 01:01:50;;;;;;;2.60;2.40;;;23.10;66.20;;;;;;5106983;27;43424;-72
2023/07/24 01:04:20;;;;;;;2.50;2.30;;;23.10;65.80;;;;;;5087815;27;43449;-71
2023/07/24 01:06:49;;;;;;;2.60;2.50;;;23.20;65.50;;;;;;5090262;27;43995;-71
2023/07/24 01:09:17;;;;;;;2.57;2.47;;;23.30;65.50;;;;;;5108218;27;43622;-71
2023/07/24 01:11:48;;;;;;;2.10;2.10;;;23.30;65.60;;;;;;5100060;27;43398;-70
2023/07/24 01:14:20;;;;;;;2.20;2.20;;;23.20;65.60;;;;;;5090559;27;43460;-71
2023/07/24 01:16:48;;;;;;;2.57;2.47;;;23.20;66.00;;;;;;5109359;27;43554;-71
2023/07/24 01:19:26;;;;;;;2.30;2.30;;;23.10;66.20;;;;;;5111419;27;43686;-70
2023/07/24 01:22:04;;;;;;;2.20;2.20;;;23.10;66.10;;;;;;5095265;27;44463;-70
2023/07/24 01:24:37;;;;;;;2.43;2.43;;;23.10;66.20;;;;;;5110643;27;43571;-70
2023/07/24 01:27:08;;;;;;;2.10;2.10;;;23.00;66.20;;;;;;5090445;27;43498;-70
2023/07/24 01:29:36;;;;;;;2.33;2.30;;;23.00;66.40;;;;;;5107022;27;45035;-71
2023/07/24 01:32:04;;;;;;;2.53;2.40;;;23.00;66.30;;;;;;5092051;27;43608;-71
2023/07/24 01:34:32;;;;;;;2.33;2.30;;;23.00;66.40;;;;;;5108339;27;43448;-70
2023/07/24 01:37:00;;;;;;;2.30;2.30;;;23.00;66.60;;;;;;5114379;27;43445;-70
2023/07/24 01:39:28;;;;;;;2.57;2.47;;;23.00;66.70;;;;;;5112724;27;44793;-70
2023/07/24 01:41:56;;;;;;;2.40;2.40;;;23.00;66.60;;;;;;5099584;27;44728;-71
2023/07/24 01:44:26;;;;;;;2.10;2.10;;;23.10;66.20;;;;;;5089361;27;43399;-71
2023/07/24 01:46:54;;;;;;;2.63;2.53;;;23.20;65.60;;;;;;5097531;27;43872;-70
2023/07/24 01:49:22;;;;;;;2.50;2.50;;;23.30;65.40;;;;;;5096320;27;44045;-71
2023/07/24 01:51:50;;;;;;;2.97;2.87;;;23.30;65.30;;;;;;5108876;27;43424;-70
2023/07/24 01:54:18;;;;;;;2.30;2.30;;;23.30;65.50;;;;;;5115287;27;43411;-70
2023/07/24 01:56:46;;;;;;;2.53;2.53;;;23.20;65.60;;;;;;5094022;27;43443;-70
2023/07/24 01:59:14;;;;;;;2.17;2.17;;;23.20;65.80;;;;;;5099389;27;45817;-71
2023/07/24 02:01:43;;;;;;;2.33;2.33;;;23.20;65.90;;;;;;5089636;27;44976;-70
2023/07/24 02:04:11;;;;;;;2.53;2.37;;;23.10;65.90;;;;;;5108360;27;44557;-71
2023/07/24 02:06:41;;;;;;;2.37;2.37;;;23.10;66.10;;;;;;5112818;27;43893;-70
2023/07/24 02:09:09;;;;;;;2.10;2.10;;;23.10;66.30;;;;;;5090172;27;45992;-70
2023/07/24 02:11:36;;;;;;;2.63;2.53;;;23.00;66.20;;;;;;5115000;27;43548;-70
2023/07/24 02:14:05;;;;;;;2.20;2.20;;;23.00;66.20;;;;;;5092224;27;43501;-72
2023/07/24 02:16:33;;;;;;;2.47;2.47;;;23.00;66.40;;;;;;5090524;27;44002;-70
2023/07/24 02:19:02;;;;;;;2.27;2.27;;;23.00;66.60;;;;;;5094500;27;46056;-70
2023/07/24 02:21:31;;;;;;;2.50;2.40;;;23.00;66.60;;;;;;5093224;27;45176;-71
2023/07/24 02:23:59;;;;;;;2.30;2.30;;;23.00;66.50;;;;;;5100730;27;43335;-71
2023/07/24 02:26:27;;;;;;;2.37;2.37;;;23.00;66.60;;;;;;5098266;27;43470;-70
2023/07/24 02:28:56;;;;;;;2.00;2.00;;;23.00;66.70;;;;;;5099575;27;45622;-71
2023/07/24 02:31:24;;;;;;;2.37;2.37;;;22.90;66.70;;;;;;5093418;27;44986;-71
2023/07/24 02:33:52;;;;;;;2.27;2.27;;;22.90;66.60;;;;;;5095853;27;43443;-71
2023/07/24 02:36:21;;;;;;;2.40;2.40;;;23.00;66.30;;;;;;5118105;27;43387;-71
2023/07/24 02:38:49;;;;;;;2.10;2.10;;;23.10;66.00;;;;;;5123574;27;44054;-71
2023/07/24 02:41:17;;;;;;;2.47;2.47;;;23.20;65.50;;;;;;5114435;27;44027;-70
2023/07/24 02:43:45;;;;;;;2.30;2.20;;;23.30;65.30;;;;;;5117050;27;43434;-70
2023/07/24 02:46:13;;;;;;;2.30;2.20;;;23.30;65.50;;;;;;5098755;27;43471;-71
2023/07/24 02:48:43;;;;;;;2.20;2.10;;;23.20;65.60;;;;;;5118000;27;43685;-70
2023/07/24 02:51:11;;;;;;;2.10;2.10;;;23.20;65.90;;;;;;5118940;27;43399;-70
2023/07/24 02:53:40;;;;;;;2.60;2.33;;;23.20;66.00;;;;;;5118044;27;43377;-70
2023/07/24 02:56:08;;;;;;;1.97;1.97;;;23.10;66.00;;;;;;5111263;27;43432;-72
2023/07/24 02:58:36;;;;;;;2.70;2.60;;;23.10;66.20;;;;;;5116043;27;43882;-70
2023/07/24 03:01:06;;;;;;;2.40;2.40;;;23.00;66.30;;;;;;5113990;27;43484;-70
2023/07/24 03:03:34;;;;;;;3.07;2.60;;;23.00;66.40;;;;;;5117439;27;43407;-71
2023/07/24 03:06:02;;;;;;;2.20;2.20;;;23.00;66.40;;;;;;5116368;27;43558;-70
2023/07/24 03:08:30;;;;;;;2.20;2.20;;;23.00;66.50;;;;;;5109523;27;43899;-71
2023/07/24 03:11:00;;;;;;;2.30;2.30;;;22.90;66.50;;;;;;5110699;27;43384;-70
2023/07/24 03:13:28;;;;;;;2.10;2.10;;;22.90;66.70;;;;;;5094106;27;43446;-70
2023/07/24 03:15:56;;;;;;;2.50;2.30;;;23.00;66.70;;;;;;5105224;27;43435;-71
2023/07/24 03:18:25;;;;;;;2.47;2.40;;;23.00;66.70;;;;;;5095161;27;45347;-70
2023/07/24 03:20:53;;;;;;;2.23;2.23;;;22.90;66.70;;;;;;5114345;27;43511;-73
2023/07/24 03:23:21;;;;;;;2.30;2.30;;;22.90;66.90;;;;;;5120380;27;43498;-71
2023/07/24 03:25:49;;;;;;;2.40;2.40;;;22.90;67.00;;;;;;5099195;27;43587;-71
2023/07/24 03:28:18;;;;;;;2.07;2.07;;;23.00;66.70;;;;;;5115183;27;44018;-70
2023/07/24 03:30:46;;;;;;;2.77;2.20;;;23.10;66.30;;;;;;5114074;27;43790;-71
2023/07/24 03:33:14;;;;;;;2.20;2.20;;;23.20;65.80;;;;;;5115764;27;43991;-71
2023/07/24 03:35:42;;;;;;;2.37;2.37;;;23.30;65.50;;;;;;5090146;27;43524;-70
2023/07/24 03:38:10;;;;;;;2.70;2.50;;;23.30;65.50;;;;;;5092960;27;46134;-70
2023/07/24 03:40:38;;;;;;;2.60;2.50;;;23.30;65.70;;;;;;5112900;27;43460;-70
2023/07/24 03:43:06;;;;;;;2.40;2.20;;;23.20;65.90;;;;;;5123908;27;43497;-72
2023/07/24 03:45:36;;;;;;;2.60;2.60;;;23.20;66.20;;;;;;5098724;27;43998;-70
2023/07/24 03:48:04;;;;;;;2.27;2.27;;;23.10;66.10;;;;;;5110898;27;43697;-70
2023/07/24 03:50:32;;;;;;;2.27;2.27;;;23.10;66.20;;;;;;5111393;27;43468;-70
2023/07/24 03:53:00;;;;;;;2.20;2.20;;;23.00;66.30;;;;;;5114163;27;43415;-70
2023/07/24 03:55:28;;;;;;;2.40;2.40;;;23.00;66.20;;;;;;5099132;27;43438;-71
2023/07/24 03:57:56;;;;;;;2.30;2.30;;;23.00;66.00;;;;;;5112956;27;43976;-70
2023/07/24 04:00:24;;;;;;;2.50;2.50;;;23.00;66.20;;;;;;5114802;27;43440;-70
2023/07/24 04:02:53;;;;;;;2.67;2.57;;;23.00;66.50;;;;;;5108979;27;43461;-70
2023/07/24 04:05:21;;;;;;;2.63;2.53;;;22.90;66.20;;;;;;5097337;27;43608;-71
2023/07/24 04:07:49;;;;;;;2.47;2.37;;;23.00;66.20;;;;;;5099615;27;47155;-73
2023/07/24 04:10:17;;;;;;;2.30;2.30;;;23.00;65.90;;;;;;5120670;27;43440;-72
2023/07/24 04:12:45;;;;;;;2.67;2.57;;;23.10;65.70;;;;;;5116041;27;43501;-70
2023/07/24 04:15:13;;;;;;;2.63;2.53;;;23.20;65.30;;;;;;5099184;27;43433;-71
2023/07/24 04:17:41;;;;;;;2.30;2.20;;;23.20;65.10;;;;;;5092385;27;45405;-70
2023/07/24 04:20:12;;;;;;;2.50;2.30;;;23.20;65.40;;;;;;5114790;27;43829;-71
2023/07/24 04:22:40;;;;;;;2.30;2.30;;;23.20;65.70;;;;;;5107030;27;43406;-70
2023/07/24 04:25:08;;;;;;;2.33;2.30;;;23.10;65.70;;;;;;5115823;27;43415;-70
2023/07/24 04:27:36;;;;;;;2.30;2.30;;;23.10;65.70;;;;;;5115106;27;43867;-71
2023/07/24 04:30:05;;;;;;;2.40;2.40;;;23.10;65.90;;;;;;5107947;27;44156;-70
2023/07/24 04:32:33;;;;;;;2.10;2.10;;;23.00;66.20;;;;;;5115082;27;43391;-70
2023/07/24 04:35:01;;;;;;;2.43;2.43;;;23.00;66.20;;;;;;5111054;27;43948;-71
2023/07/24 04:37:31;;;;;;;2.20;2.20;;;23.00;66.10;;;;;;5110350;27;43829;-70
2023/07/24 04:39:59;;;;;;;2.63;2.53;;;23.00;66.10;;;;;;5114325;27;43566;-70
2023/07/24 04:42:27;;;;;;;2.50;2.40;;;23.00;66.40;;;;;;5091906;27;43478;-70
2023/07/24 04:44:54;;;;;;;2.67;2.50;;;22.90;66.50;;;;;;5114872;27;44549;-70
2023/07/24 04:47:22;;;;;;;2.70;2.60;;;22.90;66.50;;;;;;5113206;27;43716;-70
2023/07/24 04:49:50;;;;;;;2.57;2.47;;;22.90;66.40;;;;;;5109850;27;43499;-70
2023/07/24 04:52:18;;;;;;;2.30;2.20;;;22.90;66.50;;;;;;5113964;27;43433;-71
2023/07/24 04:54:48;;;;;;;2.30;2.30;;;22.90;66.70;;;;;;5102511;27;43348;-70
2023/07/24 04:57:16;;;;;;;2.40;2.30;;;22.90;66.80;;;;;;5108217;27;43791;-70
2023/07/24 04:59:44;;;;;;;2.30;2.30;;;22.90;66.60;;;;;;5113703;27;43437;-72
2023/07/24 05:02:11;;;;;;;2.50;2.40;;;23.00;66.50;;;;;;5110536;27;44054;-70
2023/07/24 05:04:41;;;;;;;2.50;2.40;;;23.00;66.10;;;;;;5096503;27;44844;-71
2023/07/24 05:07:09;;;;;;;2.30;2.20;;;23.20;65.80;;;;;;5110795;27;43626;-70
2023/07/24 05:09:37;;;;;;;2.40;2.30;;;23.20;65.60;;;;;;5092350;27;44421;-70
2023/07/24 05:12:07;;;;;;;2.30;2.30;;;23.20;65.70;;;;;;5092276;27;43417;-70
2023/07/24 05:14:35;;;;;;;2.23;2.23;;;23.20;65.90;;;;;;5109808;27;43467;-70
2023/07/24 05:17:04;;;;;;;2.30;2.27;;;23.10;66.10;;;;;;5103571;27;45699;-70
2023/07/24 05:19:31;;;;;;;2.30;2.30;;;23.10;66.30;;;;;;5111155;27;43447;-70
2023/07/24 05:22:00;;;;;;;2.17;2.17;;;23.10;66.30;;;;;;5115613;27;43417;-70
2023/07/24 05:24:28;;;;;;;2.50;2.40;;;23.10;66.50;;;;;;5109651;27;43394;-71
2023/07/24 05:26:56;;;;;;;2.37;2.30;;;23.00;66.60;;;;;;5114026;27;43613;-70
2023/07/24 05:29:25;;;;;;;2.60;2.50;;;23.00;66.90;;;;;;5094027;27;44363;-70
2023/07/24 05:31:56;;;;;;;2.53;2.43;;;23.00;66.90;;;;;;5114991;27;43434;-71
2023/07/24 05:34:24;;;;;;;2.47;2.47;;;23.00;66.90;;;;;;5110659;27;44041;-70
2023/07/24 05:36:52;;;;;;;2.97;2.40;;;22.90;66.90;;;;;;5115351;27;44079;-70
2023/07/24 05:39:20;;;;;;;11.27;2.47;;;22.90;67.40;;;;;;5113454;27;43391;-70
2023/07/24 05:41:48;;;;;;;9.17;2.73;;;22.90;67.40;;;;;;5093135;27;44126;-70
2023/07/24 05:44:16;;;;;;;5.67;2.30;;;22.90;67.10;;;;;;5111067;27;43511;-70
2023/07/24 05:46:45;;;;;;;7.67;2.40;;;22.90;67.10;;;;;;5113035;27;43622;-70
2023/07/24 05:49:13;;;;;;;6.47;2.43;;;22.90;67.20;;;;;;5112103;27;43471;-70
2023/07/24 05:51:41;;;;;;;4.63;2.60;;;22.90;67.50;;;;;;5109337;27;43901;-70
2023/07/24 05:54:09;;;;;;;6.00;2.60;;;22.90;67.50;;;;;;5110152;27;44104;-70
2023/07/24 05:56:37;;;;;;;2.43;2.33;;;23.00;67.20;;;;;;5116047;27;43609;-71
2023/07/24 05:59:07;;;;;;;2.70;2.53;;;23.10;66.80;;;;;;5110955;27;43335;-70
2023/07/24 06:01:35;;;;;;;3.07;2.57;;;23.20;66.60;;;;;;5115459;27;43512;-70
2023/07/24 06:04:07;;;;;;;4.97;2.50;;;23.30;66.50;;;;;;5117569;27;43428;-70
2023/07/24 06:06:36;;;;;;;3.77;2.60;;;23.20;66.30;;;;;;5122636;27;43845;-70
2023/07/24 06:09:04;;;;;;;3.37;2.70;;;23.20;66.50;;;;;;5112675;27;43572;-71
2023/07/24 06:11:32;;;;;;;2.80;2.60;;;23.20;66.90;;;;;;5124033;27;43380;-70
2023/07/24 06:14:00;;;;;;;3.20;2.50;;;23.10;66.70;;;;;;5116667;27;43980;-70
2023/07/24 06:16:28;;;;;;;4.37;2.50;;;23.10;66.80;;;;;;5111637;27;43757;-70
2023/07/24 06:18:56;;;;;;;3.27;2.40;;;23.10;67.00;;;;;;5117700;27;43343;-70
2023/07/24 06:21:26;;;;;;;2.40;2.30;;;23.00;67.50;;;;;;5102560;27;43430;-70
2023/07/24 06:23:54;;;;;;;2.67;2.30;;;23.00;67.50;;;;;;5112119;27;43457;-70
2023/07/24 06:26:24;;;;;;;2.83;2.40;;;23.00;67.50;;;;;;5118909;27;44969;-71
2023/07/24 06:28:52;;;;;;;2.97;2.33;;;23.00;67.40;;;;;;5111775;27;43537;-72
2023/07/24 06:31:20;;;;;;;2.20;2.20;;;23.00;68.00;;;;;;5116974;27;43467;-71
2023/07/24 06:33:48;;;;;;;2.50;2.30;;;23.00;68.20;;;;;;5114778;27;43767;-71
2023/07/24 06:36:16;;;;;;;2.93;2.57;;;23.10;68.00;;;;;;5124599;27;43932;-69
2023/07/24 06:38:47;;;;;;;2.23;2.10;;;23.20;67.60;;;;;;5114155;27;43409;-70
2023/07/24 06:41:15;;;;;;;2.43;2.33;;;23.30;67.20;;;;;;5116410;27;44060;-70
2023/07/24 06:43:43;;;;;;;3.80;2.30;;;23.30;66.90;;;;;;5112681;27;43424;-70
2023/07/24 06:46:11;;;;;;;2.50;2.30;;;23.30;66.90;;;;;;5100995;27;45405;-70
2023/07/24 06:48:39;;;;;;;2.57;2.30;;;23.30;66.80;;;;;;5108753;27;43418;-70
2023/07/24 06:51:07;;;;;;;2.20;2.20;;;23.30;67.40;;;;;;5096348;27;43517;-70
2023/07/24 06:53:35;;;;;;;2.20;2.20;;;23.20;67.40;;;;;;5108472;27;43525;-71
2023/07/24 06:56:05;;;;;;;2.33;2.33;;;23.20;67.30;;;;;;5109767;27;43683;-71
2023/07/24 06:58:33;;;;;;;2.50;2.30;;;23.20;67.30;;;;;;5118029;27;43557;-70
2023/07/24 07:01:01;;;;;;;2.67;2.43;;;23.10;67.40;;;;;;5110280;27;43441;-69
2023/07/24 07:03:29;;;;;;;3.57;3.27;;;23.10;68.10;;;;;;5114947;27;43493;-69
2023/07/24 07:05:59;;;;;;;3.03;2.93;;;23.10;67.50;;;;;;5113125;27;43673;-71
2023/07/24 07:08:27;;;;;;;2.57;2.47;;;23.00;67.30;;;;;;5085598;27;44381;-70
2023/07/24 07:10:56;;;;;;;3.37;2.70;;;23.00;67.50;;;;;;5072979;27;44619;-69
2023/07/24 07:13:26;;;;;;;2.50;2.50;;;23.00;68.00;;;;;;5098728;27;43462;-71
2023/07/24 07:15:54;;;;;;;2.70;2.60;;;23.00;68.10;;;;;;5085580;27;45729;-71
2023/07/24 07:18:22;;;;;;;3.23;3.03;;;23.10;67.90;;;;;;5112290;27;43443;-70
2023/07/24 07:20:51;;;;;;;2.70;2.60;;;23.20;67.70;;;;;;5112541;27;43448;-71
2023/07/24 07:23:19;;;;;;;3.13;2.83;;;23.30;67.30;;;;;;5114048;27;43424;-68
2023/07/24 07:25:47;;;;;;;2.57;2.47;;;23.30;67.20;;;;;;5113933;27;43611;-70
2023/07/24 07:28:15;;;;;;;3.20;3.00;;;23.30;67.10;;;;;;5092955;27;44680;-69
2023/07/24 07:30:47;;;;;;;2.73;2.60;;;23.30;67.00;;;;;;5103251;27;43443;-69
2023/07/24 07:33:15;;;;;;;3.00;2.90;;;23.20;67.50;;;;;;5115799;27;43572;-73
2023/07/24 07:35:43;;;;;;;3.63;3.33;;;23.20;67.60;;;;;;5112577;27;43701;-69
2023/07/24 07:38:11;;;;;;;2.80;2.70;;;23.20;67.50;;;;;;5113768;27;44504;-69
2023/07/24 07:40:40;;;;;;;3.10;3.00;;;23.10;67.30;;;;;;5113686;27;43458;-69
2023/07/24 07:43:08;;;;;;;2.93;2.83;;;23.10;68.00;;;;;;5116072;27;43396;-69
2023/07/24 07:45:36;;;;;;;3.37;3.10;;;23.10;68.30;;;;;;5097656;27;46016;-69
2023/07/24 07:48:06;;;;;;;3.20;2.90;;;23.10;68.10;;;;;;5119360;27;43975;-70
2023/07/24 07:50:35;;;;;;;3.00;2.90;;;23.10;67.80;;;;;;5115417;27;43505;-69
2023/07/24 07:53:03;;;;;;;4.43;3.13;;;23.00;67.60;;;;;;5116094;27;43482;-70
2023/07/24 07:55:31;;;;;;;3.23;3.13;;;23.00;68.40;;;;;;5112801;27;43620;-69
2023/07/24 07:57:59;;;;;;;3.40;3.30;;;23.00;68.50;;;;;;5110372;27;43420;-70
2023/07/24 08:00:26;;;;;;;3.33;3.23;;;23.00;68.40;;;;;;5111078;27;43443;-70
2023/07/24 08:02:54;;;;;;;3.07;2.93;;;23.00;67.90;;;;;;5113149;27;43354;-69
2023/07/24 08:05:24;;;;;;;3.67;3.43;;;23.00;68.20;;;;;;5088996;27;45535;-70
2023/07/24 08:07:52;;;;;;;3.13;2.93;;;23.00;68.40;;;;;;5114818;27;43439;-70
2023/07/24 08:10:20;;;;;;;5.30;3.57;;;23.00;68.40;;;;;;5114587;27;43500;-70
2023/07/24 08:12:48;;;;;;;3.30;3.10;;;23.10;68.00;;;;;;5116439;27;43367;-70
2023/07/24 08:15:16;;;;;;;3.30;3.20;;;23.20;67.70;;;;;;5120835;27;44598;-69
2023/07/24 08:17:44;;;;;;;3.53;3.23;;;23.40;67.40;;;;;;5098889;27;44576;-70
2023/07/24 08:20:12;;;;;;;3.20;3.00;;;23.40;67.30;;;;;;5115239;27;43458;-69
2023/07/24 08:22:42;;;;;;;3.20;3.10;;;23.40;67.40;;;;;;5114260;27;43396;-70
2023/07/24 08:25:10;;;;;;;2.97;2.87;;;23.30;67.10;;;;;;5113068;27;43607;-69
2023/07/24 08:27:38;;;;;;;3.40;3.20;;;23.30;67.70;;;;;;5092961;27;45822;-70
2023/07/24 08:30:25;;;;;;;3.10;2.90;;;23.20;67.70;;;;;;5115791;27;43438;-70
2023/07/24 08:32:53;;;;;;;2.77;2.67;;;23.20;67.70;;;;;;5098931;27;43392;-69
2023/07/24 08:35:22;;;;;;;3.03;2.93;;;23.10;67.40;;;;;;5111034;27;43831;-70
2023/07/24 08:37:51;;;;;;;2.70;2.60;;;23.10;68.10;;;;;;5111903;27;43901;-69
2023/07/24 08:40:19;;;;;;;3.50;3.20;;;23.10;68.20;;;;;;5113221;27;44031;-69
2023/07/24 08:42:47;;;;;;;3.07;2.87;;;23.10;68.20;;;;;;5113705;27;43510;-71
2023/07/24 08:45:15;;;;;;;3.30;3.10;;;23.00;67.80;;;;;;5110192;27;43686;-70
2023/07/24 08:47:44;;;;;;;3.50;3.27;;;23.00;68.50;;;;;;5122255;27;43437;-73
2023/07/24 08:50:14;;;;;;;3.30;3.20;;;23.00;68.60;;;;;;5093448;27;43374;-70
2023/07/24 08:52:44;;;;;;;3.67;3.33;;;23.10;68.50;;;;;;5115632;27;43351;-70
2023/07/24 08:55:14;;;;;;;3.00;2.90;;;23.20;68.10;;;;;;5115263;27;44000;-70
2023/07/24 08:57:42;;;;;;;4.80;3.00;;;23.30;67.90;;;;;;5118138;27;43434;-72
2023/07/24 09:00:11;;;;;;;3.10;3.00;;;23.30;67.60;;;;;;5118641;27;43479;-71
2023/07/24 09:02:39;;;;;;;2.80;2.70;;;23.30;67.60;;;;;;5091014;27;43480;-69
2023/07/24 09:05:07;;;;;;;3.00;2.90;;;23.20;67.40;;;;;;5109244;27;43939;-70
2023/07/24 09:07:35;;;;;;;3.10;2.83;;;23.20;68.10;;;;;;5093526;27;44765;-69
2023/07/24 09:10:03;;;;;;;3.60;2.90;;;23.10;68.70;;;;;;5090650;27;43468;-70
2023/07/24 09:12:33;;;;;;;3.03;2.73;;;23.10;67.80;;;;;;5110011;27;43584;-69
2023/07/24 09:15:04;;;;;;;4.00;3.17;;;23.10;67.70;;;;;;5109554;27;45924;-70
2023/07/24 09:17:34;;;;;;;11.97;11.17;;;23.00;67.90;;;;;;5111597;27;43460;-72
2023/07/24 09:20:03;;;;;;;10.23;9.53;;;23.00;67.80;;;;;;5113350;27;43861;-70
2023/07/24 09:22:31;;;;;;;8.90;8.30;;;23.00;67.80;;;;;;5087452;27;44065;-70
2023/07/24 09:25:03;;;;;;;7.53;6.80;;;23.00;67.60;;;;;;5094467;27;47164;-69
2023/07/24 09:27:32;;;;;;;11.50;6.47;;;23.00;67.70;;;;;;5113438;27;43435;-71
2023/07/24 09:30:02;;;;;;;9.47;6.07;;;22.90;67.50;;;;;;5107520;27;43551;-69
2023/07/24 09:32:31;;;;;;;7.87;6.20;;;23.00;67.30;;;;;;5092375;27;43443;-70
2023/07/24 09:34:59;;;;;;;9.43;6.20;;;23.10;66.80;;;;;;5107118;27;43829;-70
2023/07/24 09:37:28;;;;;;;10.23;5.67;;;23.20;66.40;;;;;;5114640;27;43453;-70
2023/07/24 09:39:56;;;;;;;5.60;5.03;;;23.30;66.00;;;;;;5114886;27;43568;-70
2023/07/24 09:42:33;;;;;;;7.00;5.10;;;23.30;65.80;;;;;;5094890;27;43546;-70
2023/07/24 09:45:01;;;;;;;6.37;5.00;;;23.30;66.00;;;;;;5090139;27;46017;-70
2023/07/24 09:47:29;;;;;;;6.17;4.27;;;23.20;66.10;;;;;;5115243;27;43944;-69
2023/07/24 09:50:17;;;;;;;5.00;4.60;;;23.10;65.80;;;;;;5089238;27;43453;-69
2023/07/24 09:52:46;;;;;;;4.90;4.60;;;23.10;65.70;;;;;;5107003;27;43407;-70
2023/07/24 09:55:16;;;;;;;4.90;4.70;;;23.10;66.20;;;;;;5108305;27;43917;-70
2023/07/24 09:57:46;;;;;;;4.73;4.30;;;23.00;66.40;;;;;;5102437;27;43368;-69
2023/07/24 10:00:14;;;;;;;4.80;4.50;;;23.00;66.90;;;;;;5108168;27;43391;-69
2023/07/24 10:02:44;;;;;;;4.57;4.20;;;23.00;67.00;;;;;;5089273;27;43605;-69
2023/07/24 10:05:12;;;;;;;4.63;4.23;;;23.00;67.20;;;;;;5089577;27;45747;-69
2023/07/24 10:07:40;;;;;;;4.57;4.37;;;23.00;67.00;;;;;;5108235;27;43623;-68
2023/07/24 10:10:09;;;;;;;9.43;4.70;;;22.90;67.10;;;;;;5108525;27;43343;-68
2023/07/24 10:12:37;;;;;;;4.13;3.80;;;22.90;67.70;;;;;;5110251;27;43954;-68
2023/07/24 10:15:07;;;;;;;6.73;4.37;;;23.00;67.60;;;;;;5113126;27;43571;-69
2023/07/24 10:17:36;;;;;;;4.53;4.23;;;23.10;67.40;;;;;;5109492;27;43390;-68
2023/07/24 10:20:06;;;;;;;4.27;3.87;;;23.20;67.00;;;;;;5108306;27;44015;-69
2023/07/24 10:22:34;;;;;;;4.20;3.90;;;23.30;66.90;;;;;;5087829;27;43604;-70
2023/07/24 10:25:02;;;;;;;4.60;4.30;;;23.30;66.80;;;;;;5107800;27;43770;-71
2023/07/24 10:27:30;;;;;;;5.30;4.00;;;23.30;66.80;;;;;;5109171;27;43499;-71
2023/07/24 10:30:02;;;;;;;5.17;3.90;;;23.20;66.70;;;;;;5111204;27;43958;-71
2023/07/24 10:32:50;;;;;;;3.90;3.80;;;23.10;67.30;;;;;;5108590;27;43387;-70
2023/07/24 10:35:24;;;;;;;5.43;4.20;;;23.10;67.40;;;;;;5107962;27;43678;-70
2023/07/24 10:37:59;;;;;;;3.77;3.67;;;23.10;67.30;;;;;;5108074;27;43296;-70
2023/07/24 10:40:28;;;;;;;4.23;3.93;;;23.00;67.20;;;;;;5113144;27;43450;-70
2023/07/24 10:43:05;;;;;;;5.70;4.27;;;23.00;67.90;;;;;;5088531;27;43398;-70
2023/07/24 10:45:40;;;;;;;4.40;4.00;;;23.00;68.00;;;;;;5107750;27;43752;-70
2023/07/24 10:48:11;;;;;;;3.97;3.87;;;23.00;67.90;;;;;;5091051;27;44646;-70
2023/07/24 10:50:40;;;;;;;4.57;4.03;;;23.00;68.40;;;;;;5111498;27;43303;-70
2023/07/24 10:53:09;;;;;;;4.83;4.40;;;22.90;68.00;;;;;;5112067;27;43343;-70
2023/07/24 10:55:37;;;;;;;4.03;3.93;;;22.90;68.10;;;;;;5092242;27;45651;-70
2023/07/24 10:58:06;;;;;;;7.20;4.80;;;23.00;68.10;;;;;;5111330;27;43442;-70
2023/07/24 11:00:34;;;;;;;4.13;3.93;;;23.10;67.80;;;;;;5111007;27;43449;-70
2023/07/24 11:03:02;;;;;;;4.13;3.73;;;23.20;67.40;;;;;;5082801;27;43568;-70
2023/07/24 11:05:31;;;;;;;4.20;3.93;;;23.30;67.30;;;;;;5110468;27;43879;-70
2023/07/24 11:07:59;;;;;;;3.90;3.80;;;23.30;67.20;;;;;;5107595;27;43486;-70
2023/07/24 11:10:29;;;;;;;3.80;3.60;;;23.30;67.20;;;;;;5110755;27;43425;-70
2023/07/24 11:12:57;;;;;;;3.60;3.50;;;23.20;67.40;;;;;;5092643;27;43557;-72
2023/07/24 11:15:26;;;;;;;3.93;3.73;;;23.20;67.80;;;;;;5109972;27;43708;-71
2023/07/24 11:17:55;;;;;;;4.27;4.07;;;23.10;67.80;;;;;;5092131;27;45158;-70
2023/07/24 11:20:23;;;;;;;3.83;3.63;;;23.10;67.70;;;;;;5110847;27;43445;-71
2023/07/24 11:22:52;;;;;;;3.90;3.57;;;23.00;67.50;;;;;;5108962;27;43409;-69
2023/07/24 11:25:20;;;;;;;4.23;3.90;;;23.00;68.30;;;;;;5114121;27;43595;-73
2023/07/24 11:27:48;;;;;;;3.80;3.60;;;23.00;68.20;;;;;;5111228;27;43939;-69
2023/07/24 11:30:20;;;;;;;3.87;3.70;;;23.00;68.20;;;;;;5091859;27;43595;-69
2023/07/24 11:32:48;;;;;;;9.20;4.17;;;23.00;67.90;;;;;;5110131;27;43415;-71
2023/07/24 11:35:16;;;;;;;4.13;3.90;;;22.90;68.30;;;;;;5112347;27;44044;-69
2023/07/24 11:37:44;;;;;;;4.93;4.17;;;23.00;68.40;;;;;;5116010;27;43463;-70
2023/07/24 11:40:15;;;;;;;5.37;5.03;;;23.00;68.20;;;;;;5117102;27;43454;-69
2023/07/24 11:42:44;;;;;;;5.23;4.70;;;23.20;68.30;;;;;;5113977;27;43926;-69
2023/07/24 11:45:12;;;;;;;8.70;6.37;;;23.30;67.80;;;;;;5111383;27;43763;-69
2023/07/24 11:47:47;;;;;;;6.83;6.27;;;23.30;67.90;;;;;;5118602;27;43688;-69
2023/07/24 11:50:15;;;;;;;6.07;5.10;;;23.30;67.90;;;;;;5103633;27;43614;-69
2023/07/24 11:52:44;;;;;;;6.30;5.70;;;23.20;67.60;;;;;;5116210;27;43483;-69
2023/07/24 11:55:13;;;;;;;6.37;5.80;;;23.10;68.70;;;;;;5097426;27;47140;-70
2023/07/24 11:57:41;;;;;;;6.97;5.50;;;23.10;69.40;;;;;;5113385;27;43932;-70
2023/07/24 12:00:19;;;;;;;6.27;5.67;;;23.10;69.20;;;;;;5110992;27;43438;-71
2023/07/24 12:02:47;;;;;;;6.40;5.80;;;23.00;68.80;;;;;;5115881;27;44069;-70
2023/07/24 12:05:15;;;;;;;5.83;5.53;;;23.00;70.30;;;;;;5115370;27;43680;-70
2023/07/24 12:07:44;;;;;;;5.97;5.50;;;23.00;71.30;;;;;;5122043;27;44097;-71
2023/07/24 12:10:14;;;;;;;5.80;5.20;;;23.00;70.60;;;;;;5109658;27;43423;-70
2023/07/24 12:12:44;;;;;;;5.53;5.13;;;22.90;69.90;;;;;;5111719;27;43944;-70
2023/07/24 12:15:14;;;;;;;5.17;4.90;;;22.90;70.10;;;;;;5111090;27;43852;-70
2023/07/24 12:17:42;;;;;;;5.87;5.30;;;22.90;70.50;;;;;;5113815;27;43458;-70
2023/07/24 12:20:11;;;;;;;5.60;5.27;;;22.90;70.40;;;;;;5118709;27;43575;-70
2023/07/24 12:22:39;;;;;;;5.77;5.33;;;22.90;70.00;;;;;;5111056;27;43465;-71
2023/07/24 12:25:08;;;;;;;5.10;4.70;;;22.90;69.70;;;;;;5114343;27;43966;-73
2023/07/24 12:27:39;;;;;;;5.73;4.70;;;22.90;70.90;;;;;;5107053;27;44039;-71
2023/07/24 12:30:08;;;;;;;5.10;4.70;;;22.90;71.20;;;;;;5116111;27;43402;-70
2023/07/24 12:32:36;;;;;;;4.90;4.50;;;23.00;70.90;;;;;;5115857;27;43352;-70
2023/07/24 12:35:05;;;;;;;4.50;4.30;;;23.10;70.50;;;;;;5092563;27;45765;-70
2023/07/24 12:37:33;;;;;;;5.00;4.70;;;23.30;70.20;;;;;;5114020;27;44068;-70
2023/07/24 12:40:03;;;;;;;4.83;4.53;;;23.30;69.90;;;;;;5112367;27;44124;-70
2023/07/24 12:42:31;;;;;;;4.50;4.10;;;23.30;70.40;;;;;;5110574;27;43494;-71
2023/07/24 12:45:02;;;;;;;4.30;4.10;;;23.30;69.40;;;;;;5093610;27;43782;-70
2023/07/24 12:47:31;;;;;;;4.80;4.50;;;23.20;70.00;;;;;;5109647;27;43511;-70
2023/07/24 12:50:01;;;;;;;4.77;4.37;;;23.20;70.20;;;;;;5107629;27;43363;-70
2023/07/24 12:52:33;;;;;;;4.30;4.20;;;23.20;70.20;;;;;;5107776;27;44001;-70